Time;durP1;ratioP1;P1;durP2;ratioP2;P2;SDS_P1;SDS_P2;PMS_P1;PMS_P2;Temp;Humidity;BMP_temperature;BMP_pressure;BME280_temperature;BME280_humidity;BME280_pressure;Samples;Min_cycle;Max_cycle;Signal;HPM_P1;HPM_P2
2023/05/26 00:00:50;;;;;;;0.20;0.20;;;15.80;99.90;;;;;;5065203;28;20055;-74
2023/05/26 00:03:16;;;;;;;0.20;0.20;;;15.90;99.90;;;;;;5060535;28;20687;-73
2023/05/26 00:05:43;;;;;;;0.20;0.20;;;15.90;99.90;;;;;;5043046;28;20383;-73
2023/05/26 00:08:09;;;;;;;0.20;0.20;;;17.40;99.90;;;;;;5064332;28;20021;-86
2023/05/26 00:10:35;;;;;;;0.20;0.20;;;15.90;99.90;;;;;;5068323;28;20031;-89
2023/05/26 00:13:01;;;;;;;0.20;0.20;;;16.00;99.90;;;;;;5070836;28;20024;-73
2023/05/26 00:15:27;;;;;;;0.95;0.95;;;16.00;99.90;;;;;;5073441;28;20505;-76
2023/05/26 00:17:53;;;;;;;0.20;0.20;;;16.00;99.90;;;;;;5077728;28;20020;-82
2023/05/26 00:20:18;;;;;;;0.10;0.10;;;16.00;99.90;;;;;;5074144;28;20025;-73
2023/05/26 00:22:44;;;;;;;0.20;0.20;;;16.00;99.90;;;;;;5065363;28;20025;-83
2023/05/26 00:25:10;;;;;;;0.20;0.20;;;16.00;99.90;;;;;;5063756;28;20043;-94
2023/05/26 00:27:36;;;;;;;0.20;0.20;;;16.00;99.90;;;;;;5067382;28;20016;-75
2023/05/26 00:30:02;;;;;;;0.10;0.10;;;16.00;99.90;;;;;;5061949;28;20415;-85
2023/05/26 00:32:28;;;;;;;0.68;0.68;;;16.00;99.90;;;;;;5061722;28;20380;-72
2023/05/26 00:34:57;;;;;;;4.28;3.20;;;15.80;99.90;;;;;;5063269;28;20486;-84
2023/05/26 00:37:23;;;;;;;0.13;0.13;;;15.80;99.90;;;;;;5067678;28;20075;-74
2023/05/26 00:39:48;;;;;;;0.13;0.13;;;15.90;99.90;;;;;;5065166;28;20071;-84
2023/05/26 00:42:14;;;;;;;0.15;0.15;;;15.90;99.90;;;;;;5046739;28;20021;-94
2023/05/26 00:44:40;;;;;;;0.30;0.30;;;15.90;99.90;;;;;;5065249;28;20031;-96
2023/05/26 00:47:06;;;;;;;0.20;0.20;;;15.90;99.90;;;;;;5063425;28;20021;-82
2023/05/26 00:49:32;;;;;;;0.47;0.47;;;15.90;99.90;;;;;;5064382;28;20468;-80
2023/05/26 00:51:57;;;;;;;0.20;0.20;;;16.00;99.90;;;;;;5062967;28;20255;-87
2023/05/26 00:54:23;;;;;;;0.15;0.15;;;16.00;99.90;;;;;;5065818;28;20033;-87
2023/05/26 00:56:51;;;;;;;0.20;0.20;;;16.00;99.90;;;;;;5063265;28;20025;-73
2023/05/26 00:59:18;;;;;;;0.10;0.10;;;15.90;99.90;;;;;;5064579;28;20689;-88
2023/05/26 01:01:44;;;;;;;0.28;0.28;;;16.00;99.90;;;;;;5067749;28;20103;-84
2023/05/26 01:04:10;;;;;;;0.10;0.10;;;15.90;99.90;;;;;;5064965;28;20483;-74
2023/05/26 01:06:36;;;;;;;0.10;0.10;;;15.90;99.90;;;;;;5061049;28;20020;-91
2023/05/26 01:09:03;;;;;;;0.10;0.10;;;15.90;99.90;;;;;;5062801;28;20008;-94
2023/05/26 01:11:36;;;;;;;0.30;0.30;;;15.90;99.90;;;;;;5064955;28;20008;-83
2023/05/26 01:14:14;;;;;;;0.10;0.10;;;15.90;99.90;;;;;;5063097;28;20304;-89
2023/05/26 01:16:52;;;;;;;0.60;0.60;;;16.70;99.90;;;;;;5060943;28;20032;-81
2023/05/26 01:19:50;;;;;;;0.20;0.20;;;15.90;99.90;;;;;;5079909;28;20031;-82
2023/05/26 01:22:40;;;;;;;0.20;0.20;;;15.90;99.90;;;;;;5072516;28;20591;-82
2023/05/26 01:25:47;;;;;;;0.38;0.38;;;15.90;99.90;;;;;;5060708;28;20381;-91
2023/05/26 01:28:26;;;;;;;2.95;2.85;;;15.90;99.90;;;;;;5062559;28;20432;-82
2023/05/26 01:30:53;;;;;;;0.77;0.77;;;15.90;99.90;;;;;;5062537;28;20020;-86
2023/05/26 01:33:19;;;;;;;0.10;0.10;;;15.90;99.90;;;;;;5062580;28;20024;-81
2023/05/26 01:35:45;;;;;;;0.43;0.43;;;15.90;99.90;;;;;;5060763;28;20021;-78
2023/05/26 01:38:11;;;;;;;0.85;0.85;;;15.90;99.90;;;;;;5062032;28;20017;-82
2023/05/26 01:40:39;;;;;;;0.15;0.15;;;15.80;99.90;;;;;;5062277;28;20199;-84
2023/05/26 01:43:13;;;;;;;0.20;0.20;;;15.90;99.90;;;;;;5061538;28;20055;-75
2023/05/26 01:46:02;;;;;;;0.10;0.10;;;15.80;99.90;;;;;;5060696;28;20701;-85
2023/05/26 01:48:31;;;;;;;3.92;3.63;;;15.80;99.90;;;;;;5062714;28;20028;-91
2023/05/26 01:51:01;;;;;;;0.13;0.13;;;15.80;99.90;;;;;;5061816;28;20525;-85
2023/05/26 01:53:31;;;;;;;0.20;0.20;;;15.80;99.90;;;;;;5062072;28;20047;-89
2023/05/26 01:55:58;;;;;;;0.45;0.45;;;15.80;99.90;;;;;;5043913;28;20028;-95
2023/05/26 01:58:26;;;;;;;0.20;0.20;;;15.80;99.90;;;;;;5061924;28;20374;-83
2023/05/26 02:00:52;;;;;;;0.32;0.32;;;15.80;99.90;;;;;;5062297;28;20032;-85
2023/05/26 02:03:18;;;;;;;0.25;0.25;;;15.70;99.90;;;;;;5062816;28;20017;-86
2023/05/26 02:05:44;;;;;;;0.20;0.20;;;15.70;99.90;;;;;;5062943;28;20321;-90
2023/05/26 02:08:10;;;;;;;0.30;0.30;;;15.70;99.90;;;;;;5062490;28;20499;-85
2023/05/26 02:10:36;;;;;;;0.20;0.20;;;15.70;99.90;;;;;;5063573;28;20050;-86
2023/05/26 02:13:03;;;;;;;0.40;0.40;;;15.70;99.90;;;;;;5044088;28;20107;-78
2023/05/26 02:15:29;;;;;;;2.20;1.30;;;15.70;99.90;;;;;;5061606;28;20142;-75
2023/05/26 02:17:57;;;;;;;0.20;0.20;;;15.70;99.90;;;;;;5042480;28;20031;-75
2023/05/26 02:20:24;;;;;;;0.13;0.13;;;15.70;99.90;;;;;;5061840;28;20565;-81
2023/05/26 02:22:50;;;;;;;0.10;0.10;;;15.60;99.90;;;;;;5061920;28;20298;-76
2023/05/26 02:25:16;;;;;;;0.10;0.10;;;15.60;99.90;;;;;;5061776;28;20029;-73
2023/05/26 02:27:42;;;;;;;0.30;0.30;;;15.60;99.90;;;;;;5061521;28;20039;-76
2023/05/26 02:30:08;;;;;;;0.55;0.55;;;15.60;99.90;;;;;;5061348;28;20679;-89
2023/05/26 02:32:36;;;;;;;0.20;0.20;;;15.60;99.90;;;;;;5061903;28;20025;-76
2023/05/26 02:35:05;;;;;;;0.10;0.10;;;15.60;99.90;;;;;;5041635;28;20093;-91
2023/05/26 02:37:31;;;;;;;0.20;0.20;;;15.70;99.90;;;;;;5070020;28;20056;-77
2023/05/26 02:39:57;;;;;;;0.38;0.38;;;15.60;99.90;;;;;;5060311;28;20076;-91
2023/05/26 02:42:23;;;;;;;0.10;0.10;;;15.60;99.90;;;;;;5062746;28;20025;-89
2023/05/26 02:44:50;;;;;;;0.82;0.82;;;15.60;99.90;;;;;;5062649;28;20305;-81
2023/05/26 02:47:15;;;;;;;0.22;0.22;;;15.60;99.90;;;;;;5060110;28;20272;-90
2023/05/26 02:49:42;;;;;;;0.20;0.20;;;15.60;99.90;;;;;;5062789;28;20021;-89
2023/05/26 02:52:08;;;;;;;0.43;0.43;;;15.60;99.90;;;;;;5062479;28;20120;-85
2023/05/26 02:54:34;;;;;;;0.30;0.30;;;15.60;99.90;;;;;;5062452;28;20131;-89
2023/05/26 02:56:59;;;;;;;0.20;0.20;;;15.60;99.90;;;;;;5061150;28;20073;-83
2023/05/26 02:59:25;;;;;;;0.10;0.10;;;15.60;99.90;;;;;;5061985;28;20341;-84
2023/05/26 03:01:51;;;;;;;0.30;0.30;;;15.60;99.90;;;;;;5061246;28;20677;-84
2023/05/26 03:04:17;;;;;;;0.20;0.20;;;15.60;99.90;;;;;;5061560;28;20413;-89
2023/05/26 03:06:43;;;;;;;0.20;0.20;;;15.50;99.90;;;;;;5043347;28;20035;-93
2023/05/26 03:09:09;;;;;;;0.20;0.20;;;15.50;99.90;;;;;;5062617;28;20021;-82
2023/05/26 03:11:35;;;;;;;1.33;0.85;;;15.50;99.90;;;;;;5061606;28;20190;-85
2023/05/26 03:14:00;;;;;;;0.10;0.10;;;15.50;99.90;;;;;;5061527;28;20147;-86
2023/05/26 03:16:27;;;;;;;0.20;0.20;;;15.50;99.90;;;;;;5061733;28;20024;-83
2023/05/26 03:18:53;;;;;;;2.17;2.08;;;15.50;99.90;;;;;;5064757;28;20048;-89
2023/05/26 03:21:19;;;;;;;0.10;0.10;;;15.50;99.90;;;;;;5075345;28;20024;-90
2023/05/26 03:23:45;;;;;;;0.20;0.20;;;15.50;99.90;;;;;;5056761;28;20063;-82
2023/05/26 03:26:11;;;;;;;3.40;3.13;;;15.50;99.90;;;;;;5056739;28;20049;-77
2023/05/26 03:28:37;;;;;;;0.75;0.75;;;15.50;99.90;;;;;;5075465;28;20573;-93
2023/05/26 03:31:03;;;;;;;0.17;0.17;;;15.50;99.90;;;;;;5067478;28;20016;-83
2023/05/26 03:33:31;;;;;;;0.10;0.10;;;15.50;99.90;;;;;;5066621;28;20316;-83
2023/05/26 03:36:00;;;;;;;0.52;0.50;;;15.50;99.90;;;;;;5064990;28;20035;-92
2023/05/26 03:38:26;;;;;;;0.20;0.20;;;15.50;99.90;;;;;;5064295;28;20017;-74
2023/05/26 03:40:52;;;;;;;0.20;0.20;;;15.50;99.90;;;;;;5063785;28;20366;-84
2023/05/26 03:43:18;;;;;;;0.20;0.20;;;15.60;99.90;;;;;;5064651;28;20518;-84
2023/05/26 03:45:43;;;;;;;0.20;0.20;;;15.60;99.90;;;;;;5064103;28;20013;-74
2023/05/26 03:48:12;;;;;;;0.63;0.63;;;15.20;99.90;;;;;;5061999;28;20103;-74
2023/05/26 03:50:43;;;;;;;0.20;0.20;;;15.60;99.90;;;;;;5064360;28;20025;-93
2023/05/26 03:53:09;;;;;;;0.10;0.10;;;15.60;99.90;;;;;;5047172;28;20704;-85
2023/05/26 03:55:36;;;;;;;0.10;0.10;;;15.60;99.90;;;;;;5047216;28;20683;-87
2023/05/26 03:58:02;;;;;;;0.45;0.45;;;15.70;99.90;;;;;;5064918;28;20013;-81
2023/05/26 04:00:31;;;;;;;1.38;1.27;;;15.70;99.90;;;;;;5064472;28;20679;-86
2023/05/26 04:02:58;;;;;;;0.30;0.30;;;15.70;99.90;;;;;;5065390;28;20021;-93
2023/05/26 04:05:24;;;;;;;0.20;0.20;;;15.80;99.90;;;;;;5064865;28;20017;-84
2023/05/26 04:07:50;;;;;;;0.20;0.20;;;15.80;99.90;;;;;;5062282;28;20333;-91
2023/05/26 04:10:16;;;;;;;0.25;0.25;;;15.90;99.90;;;;;;5064870;28;20028;-90
2023/05/26 04:12:42;;;;;;;0.20;0.20;;;15.30;99.90;;;;;;5045953;28;20316;-88
2023/05/26 04:15:09;;;;;;;0.20;0.20;;;16.00;99.90;;;;;;5064252;28;20279;-80
2023/05/26 04:17:35;;;;;;;0.10;0.10;;;16.10;99.90;;;;;;5064126;28;20009;-88
2023/05/26 04:20:05;;;;;;;0.20;0.20;;;16.10;99.90;;;;;;5064612;28;20032;-86
2023/05/26 04:22:31;;;;;;;0.98;0.98;;;16.10;99.90;;;;;;5064113;28;20047;-86
2023/05/26 04:24:58;;;;;;;0.10;0.10;;;16.20;99.90;;;;;;5064074;28;20036;-90
2023/05/26 04:27:27;;;;;;;0.10;0.10;;;16.20;99.90;;;;;;5062338;28;20031;-92
2023/05/26 04:29:53;;;;;;;0.10;0.10;;;16.30;99.90;;;;;;5063071;28;20494;-91
2023/05/26 04:32:21;;;;;;;0.20;0.20;;;16.30;99.90;;;;;;5063342;28;20036;-83
2023/05/26 04:34:48;;;;;;;1.55;1.45;;;16.40;99.90;;;;;;5042989;28;20128;-86
2023/05/26 04:37:14;;;;;;;0.17;0.17;;;16.40;99.90;;;;;;5064012;28;20390;-88
2023/05/26 04:39:40;;;;;;;3.17;3.03;;;16.50;99.90;;;;;;5063212;28;20028;-81
2023/05/26 04:42:06;;;;;;;0.15;0.15;;;16.30;99.90;;;;;;5063364;28;20021;-82
2023/05/26 04:44:32;;;;;;;0.10;0.10;;;16.50;99.90;;;;;;5060670;28;20028;-76
2023/05/26 04:47:00;;;;;;;0.30;0.30;;;16.60;99.90;;;;;;5043235;28;20039;-75
2023/05/26 04:49:29;;;;;;;3.20;3.10;;;16.60;99.90;;;;;;5062413;28;20471;-87
2023/05/26 04:51:57;;;;;;;3.33;2.58;;;16.70;99.90;;;;;;5044746;28;20479;-79
2023/05/26 04:54:23;;;;;;;2.70;2.47;;;16.70;99.90;;;;;;5062196;28;20054;-85
2023/05/26 04:56:49;;;;;;;0.38;0.38;;;16.70;99.90;;;;;;5045612;28;20254;-88
2023/05/26 04:59:17;;;;;;;0.10;0.10;;;16.70;99.90;;;;;;5066056;28;20028;-82
2023/05/26 05:01:47;;;;;;;0.20;0.20;;;16.80;99.90;;;;;;5066944;28;20024;-90
2023/05/26 05:04:13;;;;;;;0.20;0.20;;;16.90;99.90;;;;;;5070319;28;20498;-85
2023/05/26 05:06:39;;;;;;;5.32;4.60;;;17.00;99.90;;;;;;5069717;28;20017;-76
2023/05/26 05:09:04;;;;;;;0.22;0.22;;;17.00;99.90;;;;;;5067034;28;20139;-87
2023/05/26 05:11:30;;;;;;;0.10;0.10;;;17.00;99.90;;;;;;5077124;28;20024;-86
2023/05/26 05:13:56;;;;;;;0.40;0.40;;;17.10;99.90;;;;;;5076594;28;20028;-89
2023/05/26 05:16:22;;;;;;;2.60;2.40;;;17.00;99.90;;;;;;5069201;28;20032;-82
2023/05/26 05:18:47;;;;;;;0.40;0.40;;;17.00;99.90;;;;;;5077759;28;20250;-84
2023/05/26 05:21:13;;;;;;;0.10;0.10;;;14.90;99.90;;;;;;5078378;28;20028;-85
2023/05/26 05:23:39;;;;;;;0.20;0.20;;;17.00;99.90;;;;;;5075557;28;20020;-86
2023/05/26 05:26:06;;;;;;;0.40;0.40;;;17.00;99.90;;;;;;5079652;28;20402;-79
2023/05/26 05:28:32;;;;;;;3.33;3.10;;;17.00;99.90;;;;;;5076641;28;20017;-83
2023/05/26 05:30:58;;;;;;;1.15;1.13;;;17.00;99.90;;;;;;5075183;28;20074;-82
2023/05/26 05:33:24;;;;;;;0.30;0.30;;;17.00;99.90;;;;;;5077020;28;20216;-85
2023/05/26 05:35:50;;;;;;;3.33;3.13;;;17.00;99.90;;;;;;5076612;28;20048;-93
2023/05/26 05:38:16;;;;;;;0.30;0.30;;;17.40;99.90;;;;;;5077070;28;20028;-83
2023/05/26 05:40:41;;;;;;;0.20;0.20;;;17.10;99.90;;;;;;5070094;28;20016;-78
2023/05/26 05:43:07;;;;;;;2.50;2.28;;;17.30;99.90;;;;;;5073894;28;20020;-88
2023/05/26 05:45:33;;;;;;;0.40;0.40;;;17.40;99.90;;;;;;5055464;28;20039;-81
2023/05/26 05:47:59;;;;;;;0.10;0.10;;;17.50;99.90;;;;;;5060850;28;20085;-77
2023/05/26 05:50:24;;;;;;;2.33;2.20;;;17.60;99.90;;;;;;5061490;28;20418;-85
2023/05/26 05:52:50;;;;;;;0.57;0.57;;;17.70;99.90;;;;;;5064110;28;20305;-85
2023/05/26 05:55:16;;;;;;;3.92;3.63;;;17.80;99.90;;;;;;5060903;28;20043;-78
2023/05/26 05:57:42;;;;;;;0.20;0.20;;;17.00;99.90;;;;;;5061944;28;20043;-87
2023/05/26 06:00:09;;;;;;;1.58;1.48;;;17.90;99.90;;;;;;5061589;28;20242;-88
2023/05/26 06:02:36;;;;;;;0.10;0.10;;;18.00;99.90;;;;;;5033308;28;20135;-73
2023/05/26 06:05:02;;;;;;;0.10;0.10;;;18.00;99.90;;;;;;5059862;28;20047;-75
2023/05/26 06:07:29;;;;;;;1.45;1.05;;;18.00;99.90;;;;;;5060048;28;20068;-79
2023/05/26 06:09:55;;;;;;;1.48;1.17;;;17.90;99.90;;;;;;5065157;28;20395;-88
2023/05/26 06:12:21;;;;;;;0.10;0.10;;;17.90;99.90;;;;;;5061318;28;20012;-90
2023/05/26 06:14:47;;;;;;;0.57;0.57;;;17.80;99.90;;;;;;5044632;28;20502;-82
2023/05/26 06:17:12;;;;;;;0.88;0.88;;;17.80;99.90;;;;;;5041191;28;20021;-89
2023/05/26 06:19:38;;;;;;;0.10;0.10;;;17.70;99.90;;;;;;5060244;28;20328;-75
2023/05/26 06:22:04;;;;;;;0.40;0.40;;;;;;;;;;5057460;28;20414;-84
2023/05/26 06:24:30;;;;;;;0.20;0.20;;;17.60;99.90;;;;;;5059828;28;20107;-87
2023/05/26 06:26:56;;;;;;;0.20;0.20;;;17.50;99.90;;;;;;5059226;28;20132;-75
2023/05/26 06:29:21;;;;;;;0.20;0.20;;;17.50;99.90;;;;;;5059574;28;20069;-80
2023/05/26 06:31:47;;;;;;;1.38;1.38;;;17.40;99.90;;;;;;5062482;28;20467;-89
2023/05/26 06:34:13;;;;;;;0.10;0.10;;;17.40;99.90;;;;;;5044216;28;20117;-82
2023/05/26 06:36:39;;;;;;;0.10;0.10;;;17.30;99.90;;;;;;5060079;28;20028;-90
2023/05/26 06:39:05;;;;;;;0.10;0.10;;;17.30;99.90;;;;;;5063239;28;20071;-81
2023/05/26 06:41:30;;;;;;;0.10;0.10;;;17.30;99.90;;;;;;5060135;28;20325;-73
2023/05/26 06:43:56;;;;;;;0.20;0.20;;;17.30;99.90;;;;;;5060368;28;20074;-85
2023/05/26 06:46:22;;;;;;;0.35;0.35;;;17.30;99.90;;;;;;5062879;28;20059;-74
2023/05/26 06:48:48;;;;;;;0.45;0.45;;;17.30;99.90;;;;;;5061511;28;20048;-76
2023/05/26 06:51:13;;;;;;;0.20;0.20;;;17.20;99.90;;;;;;5058564;28;20702;-89
2023/05/26 06:53:39;;;;;;;0.20;0.20;;;17.30;99.90;;;;;;5068056;28;20037;-91
2023/05/26 06:56:05;;;;;;;1.17;1.08;;;17.30;99.90;;;;;;5079410;28;20063;-88
2023/05/26 06:58:32;;;;;;;0.30;0.30;;;17.30;99.90;;;;;;5081950;28;20027;-88
2023/05/26 07:00:59;;;;;;;0.40;0.40;;;17.30;99.90;;;;;;5082129;28;20032;-82
2023/05/26 07:03:26;;;;;;;1.45;1.25;;;17.30;99.90;;;;;;5081431;28;20250;-81
2023/05/26 07:05:53;;;;;;;0.10;0.10;;;17.30;99.90;;;;;;5078093;28;20016;-88
2023/05/26 07:08:19;;;;;;;16.85;2.58;;;17.30;99.90;;;;;;5047755;28;20028;-77
2023/05/26 07:10:45;;;;;;;0.15;0.15;;;17.40;99.90;;;;;;5080751;28;20198;-75
2023/05/26 07:13:11;;;;;;;0.10;0.10;;;17.40;99.90;;;;;;5076095;28;20128;-75
2023/05/26 07:15:37;;;;;;;0.10;0.10;;;17.40;99.90;;;;;;5070124;28;20044;-73
2023/05/26 07:18:03;;;;;;;0.10;0.10;;;17.40;99.90;;;;;;5067478;28;20083;-75
2023/05/26 07:20:29;;;;;;;0.10;0.10;;;17.50;99.90;;;;;;5048684;28;20504;-84
2023/05/26 07:22:55;;;;;;;0.10;0.10;;;17.30;99.90;;;;;;5067344;28;20084;-74
2023/05/26 07:25:21;;;;;;;1.08;1.08;;;17.50;99.90;;;;;;5049499;28;20096;-75
2023/05/26 07:27:47;;;;;;;1.40;1.33;;;17.40;99.90;;;;;;5066721;28;20581;-78
2023/05/26 07:30:13;;;;;;;7.13;6.75;;;17.50;99.90;;;;;;5068163;28;20025;-74
2023/05/26 07:32:39;;;;;;;0.40;0.40;;;17.50;99.90;;;;;;5070808;28;20386;-74
2023/05/26 07:35:05;;;;;;;0.10;0.10;;;17.50;99.90;;;;;;5067562;28;20651;-74
2023/05/26 07:37:31;;;;;;;0.30;0.30;;;17.50;99.90;;;;;;5073505;28;20088;-79
2023/05/26 07:39:57;;;;;;;0.20;0.20;;;17.50;99.90;;;;;;5071100;28;20051;-74
2023/05/26 07:42:27;;;;;;;0.63;0.40;;;17.50;99.90;;;;;;5085016;28;20016;-75
2023/05/26 07:44:58;;;;;;;0.30;0.30;;;17.50;99.90;;;;;;5072633;28;20051;-74
2023/05/26 07:47:25;;;;;;;0.52;0.52;;;17.50;99.90;;;;;;5086160;28;20111;-80
2023/05/26 07:49:51;;;;;;;0.20;0.20;;;17.50;99.90;;;;;;5064834;28;20082;-78
2023/05/26 07:52:16;;;;;;;0.10;0.10;;;17.50;99.90;;;;;;5062117;28;20049;-73
2023/05/26 07:54:42;;;;;;;0.63;0.63;;;17.50;99.90;;;;;;5063281;28;20079;-73
2023/05/26 07:57:08;;;;;;;0.20;0.20;;;16.80;99.90;;;;;;5065536;28;20399;-74
2023/05/26 07:59:34;;;;;;;0.20;0.20;;;17.50;99.90;;;;;;5072080;28;20024;-73
2023/05/26 08:02:01;;;;;;;0.20;0.20;;;17.50;99.90;;;;;;5075620;28;20044;-75
2023/05/26 08:04:28;;;;;;;0.20;0.20;;;17.50;99.90;;;;;;5063564;28;20659;-88
2023/05/26 08:06:53;;;;;;;0.30;0.30;;;17.40;99.90;;;;;;5063150;28;20046;-79
2023/05/26 08:09:19;;;;;;;0.20;0.20;;;17.40;99.90;;;;;;5066080;28;20031;-83
2023/05/26 08:11:45;;;;;;;0.50;0.50;;;17.40;99.90;;;;;;5065187;28;20012;-94
2023/05/26 08:14:12;;;;;;;0.20;0.20;;;17.30;99.90;;;;;;5063705;28;20028;-86
2023/05/26 08:16:38;;;;;;;2.17;1.10;;;17.30;99.90;;;;;;5064175;28;20017;-85
2023/05/26 08:19:03;;;;;;;0.45;0.45;;;17.20;99.90;;;;;;5064965;28;20099;-82
2023/05/26 08:21:29;;;;;;;0.10;0.10;;;;;;;;;;5065096;28;20021;-85
2023/05/26 08:23:55;;;;;;;0.75;0.75;;;17.10;99.90;;;;;;5064467;28;20020;-76
2023/05/26 08:26:21;;;;;;;0.30;0.30;;;17.10;99.90;;;;;;5064237;28;20025;-79
2023/05/26 08:28:46;;;;;;;0.28;0.28;;;17.10;99.90;;;;;;5072954;28;20013;-93
2023/05/26 08:31:14;;;;;;;0.10;0.10;;;17.00;99.90;;;;;;5077865;28;20090;-80
2023/05/26 08:33:39;;;;;;;0.20;0.20;;;17.00;99.90;;;;;;5051378;28;20020;-81
2023/05/26 08:36:06;;;;;;;0.43;0.43;;;16.70;99.90;;;;;;5079551;28;20025;-77
2023/05/26 08:38:52;;;;;;;1.77;1.67;;;16.70;99.90;;;;;;5084399;28;20069;-76
2023/05/26 08:41:23;;;;;;;0.30;0.30;;;16.70;99.90;;;;;;5067342;28;20021;-75
2023/05/26 08:44:05;;;;;;;0.30;0.30;;;16.70;99.90;;;;;;5046136;28;20518;-76
2023/05/26 08:46:32;;;;;;;0.17;0.17;;;16.50;99.90;;;;;;5086322;28;20025;-76
2023/05/26 08:49:18;;;;;;;0.50;0.50;;;16.40;99.90;;;;;;5089233;28;20028;-75
2023/05/26 08:51:46;;;;;;;0.15;0.15;;;16.30;99.90;;;;;;5088709;28;20427;-75
2023/05/26 08:54:22;;;;;;;0.30;0.30;;;16.20;99.90;;;;;;5057643;28;20060;-75
2023/05/26 08:56:51;;;;;;;1.40;1.38;;;16.20;99.90;;;;;;5074091;28;20039;-77
2023/05/26 08:59:19;;;;;;;0.20;0.20;;;16.20;99.90;;;;;;5087122;28;20659;-75
2023/05/26 09:01:46;;;;;;;0.20;0.20;;;16.20;99.90;;;;;;5072202;28;20022;-76
2023/05/26 09:04:11;;;;;;;0.10;0.10;;;16.20;99.90;;;;;;5068307;28;20022;-81
2023/05/26 09:06:42;;;;;;;0.10;0.10;;;16.30;99.90;;;;;;5085211;28;20023;-79
2023/05/26 09:09:08;;;;;;;0.88;0.80;;;16.30;99.90;;;;;;5077713;28;20017;-80
2023/05/26 09:11:58;;;;;;;0.63;0.63;;;16.40;99.90;;;;;;5067701;28;20033;-76
2023/05/26 09:14:24;;;;;;;0.20;0.20;;;16.50;99.90;;;;;;5083838;28;20028;-74
2023/05/26 09:16:58;;;;;;;0.65;0.65;;;16.70;99.90;;;;;;5083823;28;20044;-77
2023/05/26 09:19:26;;;;;;;0.10;0.10;;;16.80;99.90;;;;;;5063229;28;20036;-76
2023/05/26 09:21:53;;;;;;;0.13;0.13;;;17.00;99.90;;;;;;5061740;28;20017;-77
2023/05/26 09:24:23;;;;;;;0.20;0.20;;;17.10;99.90;;;;;;5060675;28;20021;-75
2023/05/26 09:26:50;;;;;;;0.20;0.20;;;17.00;99.90;;;;;;5063059;28;20124;-87
2023/05/26 09:29:16;;;;;;;0.10;0.10;;;17.00;99.90;;;;;;5063970;28;20009;-76
2023/05/26 09:31:43;;;;;;;0.10;0.10;;;17.00;99.90;;;;;;5059168;28;20016;-77
2023/05/26 09:34:10;;;;;;;0.10;0.10;;;16.90;99.90;;;;;;5059633;28;20150;-87
2023/05/26 09:36:37;;;;;;;0.60;0.60;;;16.90;99.90;;;;;;5043139;28;20568;-92
2023/05/26 09:39:06;;;;;;;0.20;0.20;;;15.90;99.90;;;;;;5063273;28;20032;-75
2023/05/26 09:41:38;;;;;;;0.30;0.30;;;17.00;99.90;;;;;;5061020;28;20224;-80
2023/05/26 09:44:18;;;;;;;0.20;0.20;;;17.10;99.90;;;;;;5062458;28;20678;-77
2023/05/26 09:46:45;;;;;;;0.20;0.20;;;17.20;99.90;;;;;;5064193;28;20032;-96
2023/05/26 09:49:16;;;;;;;0.20;0.20;;;17.40;99.90;;;;;;5064167;28;20017;-87
2023/05/26 09:51:44;;;;;;;0.63;0.63;;;17.40;99.90;;;;;;5063593;28;20250;-87
2023/05/26 09:54:12;;;;;;;0.10;0.10;;;17.50;99.90;;;;;;5059233;28;20548;-76
2023/05/26 09:56:56;;;;;;;0.10;0.10;;;17.50;99.90;;;;;;5041127;28;20029;-82
2023/05/26 09:59:26;;;;;;;0.10;0.10;;;17.60;99.90;;;;;;5058616;28;20021;-79
2023/05/26 10:01:53;;;;;;;0.10;0.10;;;17.70;99.90;;;;;;5059109;28;20036;-76
2023/05/26 10:04:19;;;;;;;0.10;0.10;;;17.60;99.90;;;;;;5058317;28;20017;-78
2023/05/26 10:06:47;;;;;;;0.95;0.95;;;17.60;99.90;;;;;;5061956;28;20340;-86
2023/05/26 10:09:14;;;;;;;0.20;0.20;;;17.70;99.90;;;;;;5060993;28;20032;-92
2023/05/26 10:11:45;;;;;;;0.40;0.40;;;17.80;99.90;;;;;;5045772;28;20021;-92
2023/05/26 10:14:11;;;;;;;1.75;1.65;;;18.00;99.90;;;;;;5059936;28;20047;-92
2023/05/26 10:16:37;;;;;;;0.10;0.10;;;18.00;99.90;;;;;;5058625;28;20182;-83
2023/05/26 10:19:05;;;;;;;1.45;1.35;;;18.10;99.90;;;;;;5060075;28;20075;-92
2023/05/26 10:21:37;;;;;;;0.10;0.10;;;18.20;99.90;;;;;;5059580;28;20048;-75
2023/05/26 10:24:17;;;;;;;2.15;1.95;;;18.40;99.90;;;;;;5061999;28;20597;-87
2023/05/26 10:26:58;;;;;;;0.10;0.10;;;18.40;99.90;;;;;;5044680;28;20071;-91
2023/05/26 10:29:55;;;;;;;0.20;0.20;;;18.50;99.90;;;;;;5064487;28;20073;-94
2023/05/26 10:32:46;;;;;;;0.10;0.10;;;18.70;99.90;;;;;;4948370;28;20054;-91
2023/05/26 10:35:25;;;;;;;0.30;0.30;;;18.90;99.90;;;;;;4973718;28;20035;-94
2023/05/26 10:38:23;;;;;;;0.10;0.10;;;19.20;99.90;;;;;;4954674;28;20027;-81
2023/05/26 10:40:53;;;;;;;0.10;0.10;;;19.50;99.90;;;;;;4910389;29;20044;-87
2023/05/26 10:43:43;;;;;;;0.10;0.10;;;19.80;99.90;;;;;;4873787;29;20047;-82
2023/05/26 10:46:10;;;;;;;0.40;0.40;;;20.10;99.90;;;;;;4920043;29;20079;-83
2023/05/26 10:48:57;;;;;;;1.67;1.55;;;20.30;99.90;;;;;;4910417;29;20028;-78
2023/05/26 10:51:28;;;;;;;0.10;0.10;;;20.80;99.90;;;;;;4904934;29;20715;-89
2023/05/26 10:53:56;;;;;;;0.10;0.10;;;23.10;99.90;;;;;;4915561;29;20056;-80
2023/05/26 10:56:43;;;;;;;0.10;0.10;;;21.80;99.90;;;;;;4905697;29;20051;-84
2023/05/26 10:59:19;;;;;;;0.52;0.52;;;22.30;99.90;;;;;;4904421;29;20132;-84
2023/05/26 11:01:55;;;;;;;0.10;0.10;;;22.80;99.90;;;;;;4887116;28;20020;-90
2023/05/26 11:04:21;;;;;;;0.20;0.20;;;22.80;99.90;;;;;;4903073;29;20530;-89
2023/05/26 11:06:51;;;;;;;0.10;0.10;;;22.90;99.90;;;;;;4903254;29;20031;-77
2023/05/26 11:09:22;;;;;;;0.10;0.10;;;23.10;99.90;;;;;;4939347;28;20030;-75
2023/05/26 11:11:53;;;;;;;0.10;0.10;;;23.60;99.90;;;;;;4979293;28;20031;-87
2023/05/26 11:14:30;;;;;;;0.10;0.10;;;23.90;99.90;;;;;;4981967;28;20070;-85
2023/05/26 11:17:02;;;;;;;0.10;0.10;;;24.40;99.90;;;;;;4985988;28;20061;-89
2023/05/26 11:19:34;;;;;;;0.10;0.10;;;24.40;99.90;;;;;;5060514;28;20017;-87
2023/05/26 11:22:05;;;;;;;0.10;0.10;;;24.90;99.90;;;;;;5063019;28;20044;-90
2023/05/26 11:24:32;;;;;;;0.10;0.10;;;25.30;99.90;;;;;;5060644;28;20024;-92
2023/05/26 11:27:05;;;;;;;1.13;0.65;;;25.10;99.30;;;;;;5063847;28;20048;-94
2023/05/26 11:29:31;;;;;;;0.10;0.10;;;25.20;96.90;;;;;;5063878;28;20024;-87
2023/05/26 11:31:58;;;;;;;1.00;0.95;;;25.50;99.10;;;;;;5067300;28;20017;-83
2023/05/26 11:34:27;;;;;;;0.10;0.10;;;25.90;99.90;;;;;;5061035;28;20529;-76
2023/05/26 11:36:54;;;;;;;0.55;0.40;;;26.20;97.40;;;;;;5039186;28;20066;-76
2023/05/26 11:39:22;;;;;;;8.88;1.83;;;26.50;97.00;;;;;;5057537;28;20100;-76
2023/05/26 11:41:49;;;;;;;0.70;0.55;;;26.60;94.40;;;;;;5061301;28;20016;-75
2023/05/26 11:44:17;;;;;;;3.83;0.70;;;26.50;93.70;;;;;;5060578;28;20032;-80
2023/05/26 11:46:44;;;;;;;0.10;0.10;;;25.80;94.60;;;;;;5060670;28;20059;-82
2023/05/26 11:49:13;;;;;;;0.10;0.10;;;25.60;98.40;;;;;;5064686;28;20030;-76
2023/05/26 11:51:50;;;;;;;0.40;0.40;;;25.70;96.90;;;;;;5072404;28;20012;-82
2023/05/26 11:54:17;;;;;;;0.00;0.00;;;25.70;97.50;;;;;;5082726;28;20510;-90
2023/05/26 11:56:44;;;;;;;0.10;0.10;;;25.60;95.00;;;;;;5087916;28;20035;-80
2023/05/26 11:59:17;;;;;;;0.22;0.22;;;26.30;96.70;;;;;;5070966;28;20008;-86
2023/05/26 12:01:43;;;;;;;0.68;0.65;;;26.60;96.00;;;;;;5083022;28;20032;-87
2023/05/26 12:04:09;;;;;;;0.20;0.20;;;27.20;91.50;;;;;;5044080;28;20029;-77
2023/05/26 12:06:40;;;;;;;0.68;0.45;;;27.50;91.50;;;;;;5063853;28;20021;-83
2023/05/26 12:09:23;;;;;;;0.10;0.10;;;27.70;91.40;;;;;;5074245;28;20024;-76
2023/05/26 12:11:53;;;;;;;0.10;0.10;;;29.10;90.20;;;;;;5075643;28;20043;-86
2023/05/26 12:14:22;;;;;;;0.10;0.10;;;28.90;85.80;;;;;;5046153;28;20059;-82
2023/05/26 12:16:50;;;;;;;4.20;0.70;;;28.90;85.30;;;;;;5031719;28;20029;-77
2023/05/26 12:19:18;;;;;;;0.15;0.15;;;29.40;79.90;;;;;;5064403;28;20493;-75
2023/05/26 12:21:47;;;;;;;0.43;0.40;;;29.80;77.70;;;;;;5065903;28;20090;-76
2023/05/26 12:24:37;;;;;;;1.20;1.10;;;30.30;79.70;;;;;;5061503;28;20039;-76
2023/05/26 12:27:12;;;;;;;0.20;0.20;;;29.70;77.20;;;;;;5074349;28;20025;-75
2023/05/26 12:29:40;;;;;;;0.10;0.10;;;28.60;82.80;;;;;;5063274;28;20028;-75
2023/05/26 12:32:08;;;;;;;0.10;0.10;;;28.40;81.40;;;;;;5066980;28;20012;-78
2023/05/26 12:34:34;;;;;;;0.10;0.10;;;28.20;82.60;;;;;;5072840;28;20033;-80
2023/05/26 12:36:59;;;;;;;0.10;0.10;;;28.00;83.50;;;;;;5074250;28;20023;-86
2023/05/26 12:39:28;;;;;;;0.20;0.20;;;27.60;89.40;;;;;;5076289;28;20009;-73
2023/05/26 12:41:54;;;;;;;0.35;0.28;;;27.10;90.20;;;;;;5048442;28;20025;-75
2023/05/26 12:44:20;;;;;;;0.13;0.13;;;26.80;88.40;;;;;;5070002;28;20087;-75
2023/05/26 12:46:46;;;;;;;0.10;0.10;;;26.50;91.20;;;;;;5063242;28;20028;-81
2023/05/26 12:49:12;;;;;;;0.10;0.10;;;26.70;90.80;;;;;;5061910;28;20517;-76
2023/05/26 12:51:39;;;;;;;0.10;0.10;;;27.80;84.10;;;;;;5058803;28;20021;-82
2023/05/26 12:54:06;;;;;;;0.35;0.28;;;27.90;84.50;;;;;;5060527;28;20025;-75